Terminal Aerodrome Forecast
Issued by NWS El Paso, TX

Current Version | Previous Version | Text Only | Print | Product List | Glossary On
Versions: 1 2 3 4 5 6 7 8 9 10 11 12 13 14 15 16 17 18 19 20 21 22 23 24 25 26 27 28 29 30 31 32
132
FTUS44 KEPZ 100552
TAFELP
TAF
KELP 100552Z 1006/1106 VRB03KT 6SM BR FEW010 SCT040 BKN070
      TEMPO 1007/1011 -SHRA SCT020 BKN030
     FM101200 VRB05KT P6SM FEW010 BKN060
     FM101700 15007KT P6SM FEW050 FEW150=

USA.gov is the U.S. government's official web portal to all federal, state and local government web resources and services.